createdAt,value
2023-05-10T00:01:13.314Z,10.74
2023-05-10T00:04:08.940Z,10.88
2023-05-10T00:07:04.389Z,10.8
2023-05-10T00:09:59.986Z,10.83
2023-05-10T00:12:55.555Z,10.85
2023-05-10T00:15:51.110Z,10.76
2023-05-10T00:18:46.638Z,10.71
2023-05-10T00:21:42.225Z,10.74
2023-05-10T00:24:37.747Z,10.71
2023-05-10T00:27:33.329Z,10.68
2023-05-10T00:30:28.865Z,10.59
2023-05-10T00:33:24.447Z,10.57
2023-05-10T00:36:20.009Z,10.58
2023-05-10T00:39:15.530Z,10.51
2023-05-10T00:42:11.142Z,10.56
2023-05-10T00:45:07.699Z,10.83
2023-05-10T00:48:05.784Z,10.57
2023-05-10T00:51:01.830Z,10.57
2023-05-10T00:53:59.375Z,10.33
2023-05-10T00:56:57.930Z,10.38
2023-05-10T00:59:54.508Z,10.35
2023-05-10T01:02:51.344Z,10.27
2023-05-10T01:05:46.628Z,10.21
2023-05-10T01:08:43.158Z,10.08
2023-05-10T01:11:39.738Z,10.14
2023-05-10T01:14:37.357Z,10.14
2023-05-10T01:17:34.830Z,9.98
2023-05-10T01:20:33.491Z,10.06
2023-05-10T01:23:46.931Z,10.15
2023-05-10T01:27:00.452Z,10.08
2023-05-10T01:30:16.159Z,10.03
2023-05-10T01:33:18.497Z,10.02
2023-05-10T01:36:27.085Z,10.13
2023-05-10T01:42:38.082Z,10.32
2023-05-10T01:45:42.633Z,10.24
2023-05-10T01:48:47.195Z,10.31
2023-05-10T01:51:47.664Z,10.2
2023-05-10T01:57:57.777Z,10.16
2023-05-10T02:00:54.368Z,10.15
2023-05-10T02:03:53.884Z,10.22
2023-05-10T02:06:52.483Z,10.13
2023-05-10T02:09:49.062Z,10.47
2023-05-10T02:12:47.644Z,10.44
2023-05-10T02:15:45.108Z,10.36
2023-05-10T02:18:41.665Z,10.46
2023-05-10T02:21:38.200Z,10.61
2023-05-10T02:24:36.776Z,10.44
2023-05-10T02:27:34.348Z,10.37
2023-05-10T02:30:31.903Z,10.4
2023-05-10T02:33:30.478Z,10.33
2023-05-10T02:36:27.997Z,10.23
2023-05-10T02:39:25.546Z,10.09
2023-05-10T02:42:26.122Z,10.05
2023-05-10T02:45:26.689Z,10.06
2023-05-10T02:48:22.213Z,9.94
2023-05-10T02:51:19.790Z,9.77
2023-05-10T02:54:19.297Z,9.73
2023-05-10T02:57:23.901Z,9.74
2023-05-10T03:00:20.432Z,9.84
2023-05-10T03:03:16.012Z,9.81
2023-05-10T03:06:11.574Z,9.63
2023-05-10T03:09:10.121Z,9.35
2023-05-10T03:12:16.715Z,9.47
2023-05-10T03:15:23.202Z,9.22
2023-05-10T03:18:23.760Z,9.43
2023-05-10T03:21:24.295Z,9.46
2023-05-10T03:24:25.837Z,9.69
2023-05-10T03:27:23.391Z,9.7
2023-05-10T03:30:19.954Z,9.71
2023-05-10T03:33:15.508Z,9.51
2023-05-10T03:36:12.060Z,9.38
2023-05-10T03:39:07.627Z,9.37
2023-05-10T03:42:03.194Z,9.56
2023-05-10T03:44:58.738Z,9.82
2023-05-10T03:47:54.334Z,9.94
2023-05-10T03:50:50.866Z,9.76
2023-05-10T03:53:46.472Z,9.86
2023-05-10T03:56:42.006Z,9.7
2023-05-10T03:59:39.569Z,9.83
2023-05-10T04:02:35.262Z,9.75
2023-05-10T04:05:30.671Z,9.88
2023-05-10T04:08:26.233Z,9.98
2023-05-10T04:11:22.811Z,9.94
2023-05-10T04:14:18.364Z,10.7
2023-05-10T04:17:14.032Z,10.99
2023-05-10T04:20:10.477Z,11.39
2023-05-10T04:23:06.004Z,11.51
2023-05-10T04:26:01.601Z,11.42
2023-05-10T04:28:57.191Z,11.14
2023-05-10T04:31:52.682Z,11.15
2023-05-10T04:34:48.238Z,11.19
2023-05-10T04:37:43.815Z,11.45
2023-05-10T04:40:40.447Z,11.66
2023-05-10T04:43:36.978Z,11.78
2023-05-10T04:46:32.586Z,11.97
2023-05-10T04:49:28.097Z,11.9
2023-05-10T04:52:23.673Z,12.02
2023-05-10T04:55:19.199Z,12.03
2023-05-10T04:58:14.791Z,12.3
2023-05-10T05:01:12.357Z,12.37
2023-05-10T05:04:07.875Z,12.4
2023-05-10T05:07:03.477Z,12.52
2023-05-10T05:09:58.971Z,12.49
2023-05-10T05:12:54.582Z,12.69
2023-05-10T05:15:50.171Z,13.01
2023-05-10T05:18:45.718Z,13.09
2023-05-10T05:21:46.285Z,13.09
2023-05-10T05:24:42.813Z,13.06
2023-05-10T05:27:38.373Z,13.07
2023-05-10T05:30:33.923Z,13.39
2023-05-10T05:33:30.503Z,13.45
2023-05-10T05:36:26.096Z,13.68
2023-05-10T05:39:21.594Z,13.77
2023-05-10T05:42:19.163Z,14.08
2023-05-10T05:45:14.956Z,14.14
2023-05-10T05:48:10.408Z,14.24
2023-05-10T05:51:07.397Z,14.39
2023-05-10T05:54:05.447Z,14.62
2023-05-10T05:57:01.964Z,14.52
2023-05-10T05:59:57.497Z,14.44
2023-05-10T06:02:53.214Z,14.24
2023-05-10T06:05:54.643Z,14.64
2023-05-10T06:08:50.241Z,14.66
2023-05-10T06:11:46.867Z,14.94
2023-05-10T06:14:42.326Z,14.98
2023-05-10T06:17:39.966Z,15.12
2023-05-10T06:20:36.441Z,15.62
2023-05-10T06:23:32.028Z,15.8
2023-05-10T06:26:27.579Z,15.49
2023-05-10T06:29:23.142Z,15.25
2023-05-10T06:32:18.670Z,15.52
2023-05-10T06:35:16.504Z,15.84
2023-05-10T06:38:12.800Z,15.78
2023-05-10T06:41:08.346Z,16.07
2023-05-10T06:44:04.931Z,16.58
2023-05-10T06:47:01.494Z,16.8
2023-05-10T06:49:57.081Z,16.49
2023-05-10T06:52:53.147Z,16.15
2023-05-10T06:55:50.110Z,16.11
2023-05-10T06:58:46.768Z,16.44
2023-05-10T07:01:42.285Z,16.92
2023-05-10T07:04:39.862Z,16.77
2023-05-10T07:07:35.432Z,16.64
2023-05-10T07:10:31.949Z,16.4
2023-05-10T07:13:27.561Z,16.31
2023-05-10T07:16:24.111Z,16.33
2023-05-10T07:19:20.704Z,16.31
2023-05-10T07:22:17.179Z,16.53
2023-05-10T07:25:12.727Z,16.95
2023-05-10T07:28:09.286Z,17.53
2023-05-10T07:31:06.017Z,17.05
2023-05-10T07:34:01.441Z,16.85
2023-05-10T07:36:58.996Z,16.91
2023-05-10T07:39:54.555Z,16.99
2023-05-10T07:42:50.093Z,16.82
2023-05-10T07:45:45.718Z,17.45
2023-05-10T07:48:42.229Z,17.44
2023-05-10T07:51:39.779Z,17.3
2023-05-10T07:54:35.318Z,17.09
2023-05-10T07:57:32.891Z,17.48
2023-05-10T08:00:28.466Z,17.82
2023-05-10T08:03:24.134Z,18.1
2023-05-10T08:06:20.584Z,18.12
2023-05-10T08:09:19.155Z,19.06
2023-05-10T08:12:14.683Z,18.85
2023-05-10T08:15:11.250Z,19.24
2023-05-10T08:18:06.941Z,18.48
2023-05-10T08:21:02.346Z,18.34
2023-05-10T08:23:58.947Z,18.57
2023-05-10T08:26:54.510Z,19
2023-05-10T08:29:50.713Z,19.5
2023-05-10T08:32:46.632Z,19.47
2023-05-10T08:35:42.202Z,18.96
2023-05-10T08:38:38.792Z,18.89
2023-05-10T08:41:36.281Z,19.17
2023-05-10T08:44:36.922Z,18.62
2023-05-10T08:47:36.413Z,19.44
2023-05-10T08:50:34.964Z,19.66
2023-05-10T08:53:34.509Z,19.49
2023-05-10T08:56:30.052Z,19.94
2023-05-10T08:59:25.639Z,20.24
2023-05-10T09:02:23.180Z,19.19
2023-05-10T09:05:20.151Z,19.46
2023-05-10T09:08:17.449Z,19.41
2023-05-10T09:11:16.874Z,20.19
2023-05-10T09:14:13.464Z,20.01
2023-05-10T09:17:10.018Z,19.78
2023-05-10T09:20:06.538Z,19.95
2023-05-10T09:23:03.108Z,19.33
2023-05-10T09:26:04.639Z,19.26
2023-05-10T09:29:04.232Z,19.25
2023-05-10T09:32:04.739Z,19.43
2023-05-10T09:35:07.308Z,19.87
2023-05-10T09:38:04.869Z,19.48
2023-05-10T09:41:03.409Z,20
2023-05-10T09:43:59.969Z,20.82
2023-05-10T09:46:55.674Z,19.92
2023-05-10T09:49:52.062Z,20.26
2023-05-10T09:52:48.623Z,20.05
2023-05-10T09:55:46.177Z,20.18
2023-05-10T09:58:42.713Z,20.27
2023-05-10T10:01:48.299Z,20.01
2023-05-10T10:04:44.912Z,20.6
2023-05-10T10:07:40.401Z,20.41
2023-05-10T10:10:36.986Z,20.33
2023-05-10T10:13:33.688Z,20.45
2023-05-10T10:16:35.120Z,21.28
2023-05-10T10:19:33.634Z,21.38
2023-05-10T10:22:29.168Z,21.54
2023-05-10T10:25:25.774Z,21.83
2023-05-10T10:28:32.450Z,21.24
2023-05-10T10:31:33.900Z,21.79
2023-05-10T10:34:34.374Z,22.19
2023-05-10T10:37:41.868Z,22.89
2023-05-10T10:40:43.439Z,22.79
2023-05-10T10:43:49.006Z,22.33
2023-05-10T10:46:52.578Z,22
2023-05-10T10:49:52.091Z,22.33
2023-05-10T10:52:53.671Z,22.03
2023-05-10T10:55:56.166Z,22.51
2023-05-10T10:59:00.737Z,21.79
2023-05-10T11:01:56.272Z,21.71
2023-05-10T11:04:52.959Z,23.3
2023-05-10T11:07:54.371Z,23.65
2023-05-10T11:10:52.945Z,23.02
2023-05-10T11:13:51.421Z,22.75
2023-05-10T11:16:50.145Z,22
2023-05-10T11:19:51.577Z,22.72
2023-05-10T11:22:51.162Z,23.62
2023-05-10T11:25:56.700Z,23.81
2023-05-10T11:28:54.270Z,23.67
2023-05-10T11:31:51.796Z,23.48
2023-05-10T11:34:52.352Z,23.84
2023-05-10T11:37:48.926Z,22.26
2023-05-10T11:40:46.484Z,23.4
2023-05-10T11:43:47.007Z,24.43
2023-05-10T11:46:46.672Z,23.18
2023-05-10T11:49:44.102Z,22.93
2023-05-10T11:52:40.654Z,23.65
2023-05-10T11:55:37.242Z,23.97
2023-05-10T11:58:34.788Z,22.48
2023-05-10T12:01:32.378Z,22.37
2023-05-10T12:04:31.936Z,22.79
2023-05-10T12:07:28.633Z,23.14
2023-05-10T12:10:36.004Z,23.81
2023-05-10T12:13:31.524Z,23.59
2023-05-10T12:16:31.458Z,24.05
2023-05-10T12:19:28.754Z,24.19
2023-05-10T12:22:25.198Z,23.86
2023-05-10T12:25:23.766Z,22.86
2023-05-10T12:28:21.325Z,24.35
2023-05-10T12:31:16.916Z,23.4
2023-05-10T12:34:19.442Z,22.28
2023-05-10T12:37:14.986Z,22.3
2023-05-10T12:40:12.662Z,23.68
2023-05-10T12:43:08.124Z,24.93
2023-05-10T12:46:07.773Z,23.98
2023-05-10T12:49:09.382Z,24.75
2023-05-10T12:52:05.765Z,23.76
2023-05-10T12:55:02.339Z,24.74
2023-05-10T12:57:57.870Z,25.31
2023-05-10T13:00:54.503Z,24.6
2023-05-10T13:03:51.000Z,25.46
2023-05-10T13:06:46.765Z,25.01
2023-05-10T13:09:42.139Z,25.7
2023-05-10T13:12:38.715Z,25.28
2023-05-10T13:15:36.251Z,25.71
2023-05-10T13:18:32.857Z,26.49
2023-05-10T13:21:29.417Z,26.94
2023-05-10T13:24:25.929Z,26.2
2023-05-10T13:27:21.674Z,26.26
2023-05-10T13:30:17.324Z,27.74
2023-05-10T13:33:12.631Z,26.97
2023-05-10T13:36:08.201Z,23.84
2023-05-10T13:39:05.783Z,23.15
2023-05-10T13:42:03.320Z,22.72
2023-05-10T13:44:58.862Z,21.97
2023-05-10T13:47:54.455Z,22.51
2023-05-10T13:50:50.988Z,24.64
2023-05-10T13:53:47.529Z,26.54
2023-05-10T13:56:45.126Z,23.15
2023-05-10T13:59:40.667Z,23.46
2023-05-10T14:02:37.307Z,23.19
2023-05-10T14:05:33.775Z,24.06
2023-05-10T14:08:29.348Z,24.27
2023-05-10T14:11:24.929Z,24.69
2023-05-10T14:14:21.500Z,26.03
2023-05-10T14:17:19.998Z,25.61
2023-05-10T14:20:15.536Z,26.6
2023-05-10T14:23:12.101Z,26.83
2023-05-10T14:26:09.729Z,26.74
2023-05-10T14:29:05.244Z,26.66
2023-05-10T14:32:03.874Z,27.8
2023-05-10T14:35:00.421Z,25.17
2023-05-10T14:37:55.963Z,25.93
2023-05-10T14:40:51.466Z,25.4
2023-05-10T14:43:47.064Z,23.39
2023-05-10T14:46:43.579Z,22.31
2023-05-10T14:49:39.143Z,21.63
2023-05-10T14:55:39.295Z,21.29
2023-05-10T14:58:36.835Z,21.96
2023-05-10T15:01:33.408Z,21.29
2023-05-10T15:04:29.331Z,22.54
2023-05-10T15:07:32.482Z,23.14
2023-05-10T15:10:28.007Z,22.56
2023-05-10T15:13:24.627Z,22.61
2023-05-10T15:16:21.191Z,23.53
2023-05-10T15:19:16.716Z,24.7
2023-05-10T15:22:15.229Z,26.18
2023-05-10T15:25:10.873Z,23.93
2023-05-10T15:28:06.390Z,22.47
2023-05-10T15:31:02.030Z,21.94
2023-05-10T15:33:58.512Z,21.4
2023-05-10T15:36:54.079Z,21.32
2023-05-10T15:39:49.586Z,21.75
2023-05-10T15:42:45.251Z,22.08
2023-05-10T15:45:42.791Z,21.17
2023-05-10T15:48:40.333Z,22.26
2023-05-10T15:51:36.748Z,23.85
2023-05-10T15:54:34.406Z,23.43
2023-05-10T15:57:31.992Z,23.97
2023-05-10T16:00:27.561Z,24.69
2023-05-10T16:03:25.144Z,24.01
2023-05-10T16:06:21.644Z,22.8
2023-05-10T16:09:17.260Z,21.83
2023-05-10T16:12:13.776Z,21.55
2023-05-10T16:15:10.397Z,21.33
2023-05-10T16:18:06.078Z,21.64
2023-05-10T16:21:02.492Z,22.5
2023-05-10T16:24:00.040Z,24.54
2023-05-10T16:26:56.636Z,25.11
2023-05-10T16:29:52.264Z,24.47
2023-05-10T16:32:49.728Z,24.23
2023-05-10T16:35:45.235Z,24.03
2023-05-10T16:38:41.827Z,22.88
2023-05-10T16:41:38.357Z,22.27
2023-05-10T16:44:35.950Z,22.14
2023-05-10T16:47:31.543Z,21.96
2023-05-10T16:50:28.104Z,21.81
2023-05-10T16:53:23.614Z,21.28
2023-05-10T16:56:21.503Z,20.81
2023-05-10T16:59:18.737Z,21.17
2023-05-10T17:02:15.284Z,20.64
2023-05-10T17:05:11.843Z,20.82
2023-05-10T17:08:08.408Z,20.41
2023-05-10T17:11:04.984Z,19.83
2023-05-10T17:14:01.542Z,19.66
2023-05-10T17:16:57.279Z,19.29
2023-05-10T17:19:52.631Z,18.89
2023-05-10T17:22:48.210Z,19.05
2023-05-10T17:25:44.777Z,18.99
2023-05-10T17:28:40.313Z,18.83
2023-05-10T17:31:35.900Z,18.66
2023-05-10T17:34:31.463Z,18.52
2023-05-10T17:37:26.981Z,18.22
2023-05-10T17:40:22.527Z,17.98
2023-05-10T17:43:20.181Z,17.87
2023-05-10T17:46:17.930Z,17.77
2023-05-10T17:49:13.299Z,17.61
2023-05-10T17:52:08.790Z,17.36
2023-05-10T17:55:05.363Z,17.1
2023-05-10T17:58:01.966Z,17.06
2023-05-10T18:00:57.623Z,16.9
2023-05-10T18:03:54.006Z,16.93
2023-05-10T18:06:49.612Z,16.8
2023-05-10T18:09:46.194Z,16.63
2023-05-10T18:12:41.724Z,16.51
2023-05-10T18:15:38.282Z,16.43
2023-05-10T18:18:33.908Z,16.39
2023-05-10T18:21:29.411Z,16.36
2023-05-10T18:24:37.698Z,16.33
2023-05-10T18:27:25.517Z,16.38
2023-05-10T18:30:22.088Z,16.22
2023-05-10T18:33:17.650Z,16.06
2023-05-10T18:36:14.226Z,16.31
2023-05-10T18:39:10.787Z,16.41
2023-05-10T18:42:07.339Z,16.14
2023-05-10T18:45:03.868Z,15.83
2023-05-10T18:47:59.479Z,15.66
2023-05-10T18:50:55.018Z,15.77
2023-05-10T18:53:50.574Z,15.77
2023-05-10T18:56:47.119Z,15.6
2023-05-10T18:59:53.561Z,15.63
2023-05-10T19:02:49.311Z,15.65
2023-05-10T19:05:48.875Z,15.61
2023-05-10T19:08:45.378Z,15.59
2023-05-10T19:11:42.954Z,15.47
2023-05-10T19:14:39.545Z,15.15
2023-05-10T19:17:40.886Z,15.05
2023-05-10T19:20:38.508Z,15.05
2023-05-10T19:23:35.239Z,14.98
2023-05-10T19:26:31.767Z,15.05
2023-05-10T19:29:30.421Z,14.89
2023-05-10T19:32:25.887Z,14.96
2023-05-10T19:35:21.417Z,14.94
2023-05-10T19:38:20.270Z,14.97
2023-05-10T19:41:15.523Z,14.97
2023-05-10T19:44:12.404Z,14.99
2023-05-10T19:47:08.854Z,14.87
2023-05-10T19:50:06.306Z,14.79
2023-05-10T19:53:01.767Z,14.71
2023-05-10T19:56:02.352Z,14.85
2023-05-10T19:58:57.919Z,14.67
2023-05-10T20:01:53.508Z,14.55
2023-05-10T20:04:49.964Z,14.69
2023-05-10T20:07:45.702Z,14.7
2023-05-10T20:10:42.132Z,14.6
2023-05-10T20:13:38.656Z,14.56
2023-05-10T20:16:35.281Z,14.52
2023-05-10T20:19:30.841Z,14.43
2023-05-10T20:22:27.369Z,14.43
2023-05-10T20:25:23.942Z,14.37
2023-05-10T20:28:23.501Z,14.48
2023-05-10T20:31:19.102Z,14.24
2023-05-10T20:34:14.587Z,14.13
2023-05-10T20:37:11.135Z,14.22
2023-05-10T20:40:07.716Z,14.2
2023-05-10T20:43:05.324Z,14.09
2023-05-10T20:46:04.909Z,14.2
2023-05-10T20:49:00.403Z,14.24
2023-05-10T20:51:55.968Z,14.32
2023-05-10T20:54:53.530Z,14.33
2023-05-10T20:57:48.944Z,14.24
2023-05-10T21:00:46.646Z,14.19
2023-05-10T21:03:42.084Z,14.06
2023-05-10T21:06:38.654Z,14.29
2023-05-10T21:09:35.236Z,14.27
2023-05-10T21:12:31.792Z,14.26
2023-05-10T21:15:28.350Z,14.22
2023-05-10T21:18:26.004Z,14.15
2023-05-10T21:21:22.481Z,14.08
2023-05-10T21:24:18.012Z,14.22
2023-05-10T21:27:13.599Z,14.12
2023-05-10T21:30:10.162Z,13.97
2023-05-10T21:33:05.761Z,13.9
2023-05-10T21:36:02.323Z,13.96
2023-05-10T21:38:58.837Z,14.2
2023-05-10T21:41:54.360Z,13.75
2023-05-10T21:44:50.952Z,13.81
2023-05-10T21:47:46.526Z,13.81
2023-05-10T21:50:44.066Z,13.79
2023-05-10T21:53:40.629Z,13.66
2023-05-10T21:56:38.194Z,13.66
2023-05-10T21:59:34.742Z,13.62
2023-05-10T22:02:30.366Z,13.5
2023-05-10T22:05:25.870Z,13.47
2023-05-10T22:08:21.405Z,13.32
2023-05-10T22:11:16.957Z,13.3
2023-05-10T22:14:12.505Z,13.32
2023-05-10T22:17:08.355Z,13.38
2023-05-10T22:20:04.676Z,13.35
2023-05-10T22:23:01.219Z,13.36
2023-05-10T22:25:59.755Z,13.45
2023-05-10T22:28:55.316Z,13.31
2023-05-10T22:31:50.884Z,13.42
2023-05-10T22:34:46.477Z,13.28
2023-05-10T22:37:44.961Z,13.28
2023-05-10T22:40:42.572Z,13.24
2023-05-10T22:43:39.131Z,13.28
2023-05-10T22:46:34.792Z,13.36
2023-05-10T22:49:31.242Z,13.15
2023-05-10T22:52:26.810Z,13.02
2023-05-10T22:55:23.355Z,13.2
2023-05-10T22:58:18.927Z,12.95
2023-05-10T23:01:14.541Z,12.74
2023-05-10T23:04:10.040Z,12.75
2023-05-10T23:07:07.630Z,12.62
2023-05-10T23:10:03.206Z,12.46
2023-05-10T23:12:58.731Z,12.36
2023-05-10T23:15:54.322Z,12.22
2023-05-10T23:18:50.027Z,12.19
2023-05-10T23:21:45.422Z,12.02
2023-05-10T23:24:40.973Z,11.87
2023-05-10T23:27:36.529Z,11.67
2023-05-10T23:30:32.122Z,11.55
2023-05-10T23:33:27.654Z,11.57
2023-05-10T23:36:23.242Z,11.56
2023-05-10T23:39:18.770Z,11.7
2023-05-10T23:42:14.378Z,11.48
2023-05-10T23:45:10.959Z,11.3
2023-05-10T23:48:06.574Z,11.29
2023-05-10T23:51:01.985Z,11.2
2023-05-10T23:53:57.597Z,11.1
2023-05-10T23:56:54.173Z,11.21
2023-05-10T23:59:49.735Z,11.25
